EDDV

Hannover Airport

Hannover, Germany
METAR EDDV 160950Z 10006KT CAVOK 06/02 Q1031 NOSIG
Observed Flight Rules
Nov-16 @ 09:50 UTC (28 minutes ago) Visual Flight Rules
Wind Visibility Clouds
100° at 6 knots 10,000+ meters
  • Clear skies
Temperatures Readings
Current 6°C / 43°F
Dewpoint 2°C / 36°F
Humidity 76%
Altimeter 30.44" Hg
Pressure 1031 hPa
Elevation 54
METAR EDDV 160950Z 10006KT CAVOK 06/02 Q1031 NOSIG
Observed Flight Rules
Nov-16 @ 09:50 UTC
(28 minutes ago)
VFR
Wind Visibility
100° at 6 knots 10,000+ meters
Clouds
  • Clear skies
Temperature Dewpoint
6°C / 43°F 2°C / 36°F
Humidity Altimeter Pressure
76% 30.44" Hg 1031 hPa